HomeShort term forecast

Short term forecast

Graphical weather forecast for the next 48 hours for Montreal:

Short term forecast

This weather forecast is automatically refreshed every 3 hours.

Hourly Experimental Forecast for the next 48 hours

Overall summary: Rain throughout the day.

 Date & Hour   Temp   Feel   Baro   Hum   Speed & Bearing   Wind Gust   Precip.%   Precip.   Visibility   Cloud cover   Conditions 
 14/06/2021 - 17:00  23.3°C  23.4°C  1004.7 hPa  65%  15.6 km/h   24.2 km/h  56%  0.29 mm/h  16.1km  80%  Possible Light Rain 
 14/06/2021 - 18:00  22.3°C  22.4°C  1004.6 hPa  69%  11.8 km/h   19.9 km/h  36%  0.72 mm/h  16.1km  87%  Possible Light Rain 
 14/06/2021 - 19:00  21.4°C  21.5°C  1004.8 hPa  73%  10.2 km/h   17.1 km/h  36%  0.82 mm/h  16.1km  92%  Possible Light Rain 
 14/06/2021 - 20:00  20.6°C  20.7°C  1005.2 hPa  74%  8.0 km/h   16.4 km/h  43%  0.96 mm/h  16.1km  90%  Rain 
 14/06/2021 - 21:00  19.9°C  19.9°C  1005.5 hPa  77%  7.5 km/h   17.5 km/h  36%  0.53 mm/h  16.1km  92%  Possible Light Rain 
 14/06/2021 - 22:00  19.4°C  19.5°C  1005.8 hPa  81%  7.7 km/h   15.4 km/h  38%  0.62 mm/h  16.1km  94%  Possible Light Rain 
 14/06/2021 - 23:00  18.9°C  19.1°C  1005.9 hPa  84%  7.9 km/h   13.5 km/h  36%  0.44 mm/h  16.1km  95%  Possible Light Rain 
 15/06/2021 - 00:00  18.6°C  18.8°C  1005.9 hPa  85%  7.9 km/h   14.1 km/h  28%  0.30 mm/h  16.1km  92%  Possible Light Rain 
 15/06/2021 - 01:00  18.2°C  18.4°C  1005.5 hPa  86%  7.3 km/h   14.3 km/h  31%  0.32 mm/h  16.1km  88%  Possible Light Rain 
 15/06/2021 - 02:00  17.6°C  17.7°C  1005.3 hPa  88%  7.5 km/h   16.4 km/h  23%  0.19 mm/h  16.1km  84%  Mostly Cloudy 
 15/06/2021 - 03:00  16.8°C  16.9°C  1005.4 hPa  89%  7.1 km/h   14.5 km/h  18%  0.12 mm/h  16.1km  71%  Mostly Cloudy 
 15/06/2021 - 04:00  16.3°C  16.3°C  1005.6 hPa  91%  7.0 km/h   14.7 km/h  10%  0.05 mm/h  16.1km  56%  Partly Cloudy 
 15/06/2021 - 05:00  15.9°C  16.0°C  1005.8 hPa  92%  6.7 km/h   15.3 km/h  7%  0.02 mm/h  16.1km  74%  Mostly Cloudy 
 15/06/2021 - 06:00  15.9°C  16.0°C  1005.8 hPa  93%  7.1 km/h   15.3 km/h  6%  0.01 mm/h  16.1km  70%  Mostly Cloudy 
 15/06/2021 - 07:00  16.5°C  16.6°C  1005.9 hPa  91%  8.0 km/h   14.4 km/h  7%  0.04 mm/h  16.1km  70%  Mostly Cloudy 
 15/06/2021 - 08:00  17.2°C  17.3°C  1005.8 hPa  90%  8.0 km/h   11.6 km/h  12%  0.12 mm/h  16.1km  68%  Mostly Cloudy 
 15/06/2021 - 09:00  18.3°C  18.5°C  1005.7 hPa  87%  7.8 km/h   10.8 km/h  18%  0.26 mm/h  16.1km  70%  Mostly Cloudy 
 15/06/2021 - 10:00  19.2°C  19.4°C  1005.4 hPa  84%  7.9 km/h   10.8 km/h  19%  0.31 mm/h  16.1km  73%  Mostly Cloudy 
 15/06/2021 - 11:00  20.4°C  20.5°C  1005.3 hPa  78%  8.6 km/h   11.5 km/h  20%  0.39 mm/h  16.1km  75%  Mostly Cloudy 
 15/06/2021 - 12:00  21.2°C  21.3°C  1005.0 hPa  74%  10.0 km/h   12.1 km/h  19%  0.28 mm/h  16.1km  78%  Mostly Cloudy 
 15/06/2021 - 13:00  21.4°C  21.5°C  1004.9 hPa  74%  11.5 km/h   12.1 km/h  33%  0.65 mm/h  13.6km  81%  Possible Light Rain 
 15/06/2021 - 14:00  20.7°C  20.8°C  1004.9 hPa  76%  14.0 km/h   15.9 km/h  45%  1.85 mm/h  14.4km  84%  Rain 
 15/06/2021 - 15:00  19.5°C  19.5°C  1005.2 hPa  77%  15.7 km/h   21.4 km/h  43%  1.09 mm/h  16.1km  89%  Rain 
 15/06/2021 - 16:00  18.5°C  18.5°C  1005.6 hPa  77%  17.3 km/h   25.1 km/h  43%  0.83 mm/h  16.1km  87%  Possible Light Rain 
 15/06/2021 - 17:00  18.2°C  18.2°C  1006.0 hPa  71%  16.8 km/h   27.7 km/h  36%  0.50 mm/h  16.1km  83%  Possible Light Rain 
 15/06/2021 - 18:00  18.4°C  18.4°C  1006.1 hPa  67%  13.1 km/h   20.3 km/h  22%  0.20 mm/h  16.1km  74%  Mostly Cloudy 
 15/06/2021 - 19:00  18.8°C  18.8°C  1006.4 hPa  66%  8.5 km/h   13.0 km/h  14%  0.13 mm/h  16.1km  63%  Mostly Cloudy 
 15/06/2021 - 20:00  18.5°C  18.5°C  1007.1 hPa  62%  8.0 km/h   15.5 km/h  4%  0.02 mm/h  16.1km  52%  Partly Cloudy 
 15/06/2021 - 21:00  17.4°C  17.4°C  1008.1 hPa  63%  8.8 km/h   19.1 km/h  0%  --  16.1km  31%  Clear 
 15/06/2021 - 22:00  16.4°C  16.4°C  1008.5 hPa  65%  10.6 km/h   22.7 km/h  0%  --  16.1km  24%  Clear 
 15/06/2021 - 23:00  15.4°C  15.4°C  1008.8 hPa  67%  12.3 km/h   24.7 km/h  0%  --  16.1km  20%  Clear 
 16/06/2021 - 00:00  14.5°C  14.5°C  1008.9 hPa  66%  12.5 km/h   24.0 km/h  0%  --  16.1km  16%  Clear 
 16/06/2021 - 01:00  13.9°C  13.9°C  1009.2 hPa  62%  13.0 km/h   26.3 km/h  0%  --  16.1km  14%  Clear 
 16/06/2021 - 02:00  13.1°C  13.1°C  1009.3 hPa  60%  12.7 km/h   31.9 km/h  0%  --  16.1km  28%  Clear 
 16/06/2021 - 03:00  12.2°C  12.2°C  1009.3 hPa  62%  12.0 km/h   22.6 km/h  0%  --  16.1km  40%  Partly Cloudy 
 16/06/2021 - 04:00  11.4°C  11.4°C  1009.3 hPa  66%  11.5 km/h   21.0 km/h  0%  --  16.1km  34%  Partly Cloudy 
 16/06/2021 - 05:00  10.9°C  10.9°C  1009.4 hPa  69%  11.6 km/h   20.9 km/h  0%  --  16.1km  15%  Clear 
 16/06/2021 - 06:00  11.1°C  11.1°C  1009.8 hPa  71%  11.7 km/h   21.2 km/h  0%  --  16.1km  8%  Clear 
 16/06/2021 - 07:00  12.2°C  12.2°C  1010.4 hPa  68%  12.2 km/h   21.4 km/h  0%  --  16.1km  6%  Clear 
 16/06/2021 - 08:00  13.8°C  13.8°C  1010.5 hPa  64%  12.7 km/h   20.2 km/h  0%  --  16.1km  12%  Clear 
 16/06/2021 - 09:00  15.3°C  15.3°C  1010.4 hPa  61%  14.2 km/h   21.5 km/h  0%  --  16.1km  9%  Clear 
 16/06/2021 - 10:00  16.7°C  16.7°C  1010.1 hPa  56%  16.2 km/h   22.7 km/h  0%  --  16.1km  6%  Clear 
 16/06/2021 - 11:00  17.7°C  17.7°C  1010.0 hPa  50%  18.4 km/h   24.9 km/h  0%  --  16.1km  20%  Clear 
 16/06/2021 - 12:00  18.4°C  18.4°C  1009.6 hPa  47%  19.8 km/h   27.2 km/h  0%  --  16.1km  27%  Clear 
 16/06/2021 - 13:00  19.0°C  19.0°C  1009.1 hPa  43%  21.1 km/h   28.8 km/h  0%  --  16.1km  23%  Clear 
 16/06/2021 - 14:00  19.5°C  19.5°C  1008.5 hPa  40%  21.9 km/h   28.6 km/h  1%  0.01 mm/h  16.1km  32%  Partly Cloudy 
 16/06/2021 - 15:00  20.1°C  20.1°C  1008.2 hPa  38%  21.5 km/h   28.3 km/h  1%  0.01 mm/h  16.1km  45%  Partly Cloudy 
 16/06/2021 - 16:00  20.8°C  20.8°C  1008.0 hPa  35%  22.1 km/h   29.6 km/h  1%  0.01 mm/h  16.1km  44%  Partly Cloudy 

 

Past weather and reports

Past weatherFind in this section the past weather conditions, weather archive, graphics, reports and statistics.

Current conditions

Current weather condition for MontrealAll you need to know about the current weather conditions for Montreal. Weather data is updated every 10 minutes.

Weather forecast

Current Montreal weatherSince 2004, celinium.com website has provided accurate weather forecast for Montreal's island.